createdAt,value
2023-09-30T00:00:10.108Z,84.60
2023-09-30T00:01:09.751Z,84.70
2023-09-30T00:02:09.717Z,84.70
2023-09-30T00:03:09.782Z,84.80
2023-09-30T00:04:09.726Z,84.80
2023-09-30T00:05:09.677Z,84.84
2023-09-30T00:06:09.676Z,84.74
2023-09-30T00:07:09.629Z,84.84
2023-09-30T00:08:09.639Z,84.74
2023-09-30T00:09:09.629Z,84.84
2023-09-30T00:10:09.606Z,84.95
2023-09-30T00:11:09.577Z,84.95
2023-09-30T00:12:09.624Z,84.95
2023-09-30T00:13:09.567Z,85.05
2023-09-30T00:14:09.544Z,85.05
2023-09-30T00:15:09.554Z,84.84
2023-09-30T00:16:09.537Z,85.05
2023-09-30T00:17:09.553Z,85.05
2023-09-30T00:18:09.611Z,84.84
2023-09-30T00:19:09.478Z,84.95
2023-09-30T00:20:09.675Z,85.05
2023-09-30T00:21:09.491Z,85.05
2023-09-30T00:22:09.445Z,85.09
2023-09-30T00:23:09.438Z,85.09
2023-09-30T00:24:09.438Z,85.19
2023-09-30T00:25:09.401Z,85.39
2023-09-30T00:26:09.398Z,85.39
2023-09-30T00:27:09.458Z,85.80
2023-09-30T00:28:09.377Z,85.49
2023-09-30T00:29:09.351Z,85.60
2023-09-30T00:30:09.349Z,85.60
2023-09-30T00:31:09.441Z,85.80
2023-09-30T00:32:09.318Z,85.70
2023-09-30T00:33:09.446Z,85.70
2023-09-30T00:34:09.308Z,85.90
2023-09-30T00:35:09.261Z,85.90
2023-09-30T00:36:09.334Z,85.80
2023-09-30T00:37:09.233Z,85.80
2023-09-30T00:38:09.236Z,85.80
2023-09-30T00:39:09.291Z,85.80
2023-09-30T00:40:09.209Z,85.90
2023-09-30T00:41:09.193Z,85.94
2023-09-30T00:42:09.197Z,86.15
2023-09-30T00:43:09.152Z,86.15
2023-09-30T00:44:09.264Z,86.35
2023-09-30T00:45:09.158Z,86.25
2023-09-30T00:46:09.156Z,86.25
2023-09-30T00:47:09.176Z,86.35
2023-09-30T00:48:09.163Z,86.35
2023-09-30T00:49:09.124Z,86.25
2023-09-30T00:50:09.096Z,86.25
2023-09-30T00:51:09.124Z,86.25
2023-09-30T00:52:09.060Z,86.35
2023-09-30T00:53:09.025Z,86.15
2023-09-30T00:54:09.067Z,85.94
2023-09-30T00:55:09.031Z,86.25
2023-09-30T00:56:09.011Z,86.04
2023-09-30T00:57:09.007Z,86.25
2023-09-30T00:58:09.037Z,86.35
2023-09-30T00:59:08.972Z,86.35
2023-09-30T01:00:08.978Z,86.35
2023-09-30T01:01:08.940Z,86.45
2023-09-30T01:02:08.987Z,86.49
2023-09-30T01:03:09.080Z,86.39
2023-09-30T01:04:09.020Z,86.39
2023-09-30T01:05:08.876Z,86.39
2023-09-30T01:06:08.940Z,86.29
2023-09-30T01:07:08.842Z,86.29
2023-09-30T01:08:08.858Z,86.39
2023-09-30T01:09:08.835Z,86.39
2023-09-30T01:10:08.818Z,86.49
2023-09-30T01:11:08.785Z,86.29
2023-09-30T01:12:08.853Z,86.19
2023-09-30T01:13:08.810Z,86.29
2023-09-30T01:14:08.762Z,86.39
2023-09-30T01:15:08.998Z,86.59
2023-09-30T01:16:08.854Z,86.59
2023-09-30T01:17:08.746Z,86.49
2023-09-30T01:18:08.840Z,86.59
2023-09-30T01:19:08.693Z,86.49
2023-09-30T01:20:08.694Z,86.69
2023-09-30T01:21:08.697Z,87.24
2023-09-30T01:22:08.665Z,87.14
2023-09-30T01:23:08.655Z,87.14
2023-09-30T01:24:08.649Z,87.14
2023-09-30T01:25:08.619Z,87.35
2023-09-30T01:26:08.602Z,87.55
2023-09-30T01:27:08.623Z,87.45
2023-09-30T01:28:08.582Z,87.45
2023-09-30T01:29:08.585Z,87.35
2023-09-30T01:30:08.595Z,87.35
2023-09-30T01:31:08.660Z,87.24
2023-09-30T01:32:08.542Z,87.24
2023-09-30T01:33:08.648Z,87.24
2023-09-30T01:34:08.494Z,87.24
2023-09-30T01:35:08.480Z,87.24
2023-09-30T01:36:08.604Z,87.24
2023-09-30T01:37:08.471Z,87.04
2023-09-30T01:38:08.452Z,87.04
2023-09-30T01:39:08.437Z,87.24
2023-09-30T01:40:08.428Z,87.14
2023-09-30T01:41:08.404Z,86.94
2023-09-30T01:42:08.422Z,87.04
2023-09-30T01:43:08.385Z,86.94
2023-09-30T01:44:08.366Z,87.18
2023-09-30T01:45:08.419Z,87.24
2023-09-30T01:46:08.370Z,87.18
2023-09-30T01:47:08.322Z,87.29
2023-09-30T01:48:08.344Z,87.29
2023-09-30T01:49:08.291Z,87.29
2023-09-30T01:50:08.301Z,87.08
2023-09-30T01:51:08.271Z,87.29
2023-09-30T01:52:08.247Z,87.08
2023-09-30T01:53:08.256Z,86.98
2023-09-30T01:54:08.327Z,87.49
2023-09-30T01:55:08.251Z,87.49
2023-09-30T01:56:08.204Z,87.59
2023-09-30T01:57:08.186Z,87.69
2023-09-30T01:58:08.191Z,87.79
2023-09-30T01:59:08.176Z,87.79
2023-09-30T02:00:08.209Z,87.90
2023-09-30T02:01:08.159Z,87.90
2023-09-30T02:02:08.196Z,88.00
2023-09-30T02:03:08.315Z,88.10
2023-09-30T02:04:08.423Z,88.00
2023-09-30T02:05:08.075Z,87.79
2023-09-30T02:06:08.110Z,87.90
2023-09-30T02:07:08.075Z,88.00
2023-09-30T02:08:08.053Z,87.90
2023-09-30T02:09:08.060Z,87.90
2023-09-30T02:10:08.014Z,87.94
2023-09-30T02:11:07.996Z,88.14
2023-09-30T02:12:08.077Z,88.24
2023-09-30T02:13:08.003Z,88.24
2023-09-30T02:14:07.980Z,88.14
2023-09-30T02:15:08.006Z,88.04
2023-09-30T02:16:08.006Z,88.45
2023-09-30T02:17:07.911Z,88.34
2023-09-30T02:18:07.987Z,88.24
2023-09-30T02:19:07.885Z,88.45
2023-09-30T02:20:07.895Z,88.24
2023-09-30T02:21:07.874Z,88.24
2023-09-30T02:22:07.906Z,88.04
2023-09-30T02:23:07.838Z,87.94
2023-09-30T02:24:07.889Z,88.04
2023-09-30T02:25:07.808Z,88.14
2023-09-30T02:26:07.799Z,88.14
2023-09-30T02:27:07.828Z,88.45
2023-09-30T02:28:07.764Z,88.24
2023-09-30T02:29:07.746Z,88.34
2023-09-30T02:30:07.797Z,88.24
2023-09-30T02:31:07.786Z,88.24
2023-09-30T02:32:07.725Z,88.14
2023-09-30T02:33:07.777Z,88.04
2023-09-30T02:34:07.687Z,88.04
2023-09-30T02:35:07.663Z,88.14
2023-09-30T02:36:07.723Z,88.24
2023-09-30T02:37:07.663Z,88.24
2023-09-30T02:38:07.627Z,88.04
2023-09-30T02:39:07.665Z,88.08
2023-09-30T02:40:07.604Z,88.18
2023-09-30T02:41:07.633Z,88.28
2023-09-30T02:42:07.609Z,88.18
2023-09-30T02:43:07.554Z,88.18
2023-09-30T02:44:07.549Z,88.18
2023-09-30T02:45:07.628Z,88.18
2023-09-30T02:46:07.609Z,88.18
2023-09-30T02:47:07.510Z,88.18
2023-09-30T02:48:07.518Z,88.18
2023-09-30T02:49:07.568Z,88.18
2023-09-30T02:50:07.520Z,88.18
2023-09-30T02:51:07.467Z,88.08
2023-09-30T02:52:07.464Z,87.98
2023-09-30T02:53:07.430Z,87.98
2023-09-30T02:54:07.421Z,88.18
2023-09-30T02:55:07.408Z,88.18
2023-09-30T02:56:07.405Z,88.08
2023-09-30T02:57:07.369Z,88.18
2023-09-30T02:58:07.364Z,88.08
2023-09-30T02:59:07.349Z,87.88
2023-09-30T03:00:07.477Z,87.77
2023-09-30T03:01:07.499Z,87.67
2023-09-30T03:02:07.342Z,87.77
2023-09-30T03:03:07.419Z,87.88
2023-09-30T03:04:07.304Z,87.88
2023-09-30T03:05:07.311Z,87.98
2023-09-30T03:06:07.264Z,88.28
2023-09-30T03:07:07.274Z,88.28
2023-09-30T03:08:07.247Z,88.32
2023-09-30T03:09:07.228Z,88.32
2023-09-30T03:10:07.208Z,88.32
2023-09-30T03:11:07.211Z,88.53
2023-09-30T03:12:07.207Z,88.43
2023-09-30T03:13:07.168Z,88.12
2023-09-30T03:14:07.160Z,88.22
2023-09-30T03:15:07.134Z,88.12
2023-09-30T03:16:07.132Z,88.12
2023-09-30T03:17:07.166Z,88.22
2023-09-30T03:18:07.131Z,88.02
2023-09-30T03:19:07.094Z,87.92
2023-09-30T03:20:07.071Z,87.92
2023-09-30T03:21:07.053Z,88.02
2023-09-30T03:22:07.044Z,87.82
2023-09-30T03:23:07.045Z,87.82
2023-09-30T03:24:07.021Z,87.71
2023-09-30T03:25:06.998Z,87.92
2023-09-30T03:26:06.984Z,87.92
2023-09-30T03:27:06.965Z,87.92
2023-09-30T03:28:06.968Z,87.92
2023-09-30T03:29:06.939Z,88.02
2023-09-30T03:30:06.976Z,88.02
2023-09-30T03:31:06.958Z,87.92
2023-09-30T03:32:07.002Z,87.92
2023-09-30T03:33:06.927Z,87.82
2023-09-30T03:34:06.884Z,87.92
2023-09-30T03:35:06.876Z,87.92
2023-09-30T03:36:06.853Z,88.12
2023-09-30T03:37:06.903Z,88.22
2023-09-30T03:38:06.819Z,88.43
2023-09-30T03:39:06.846Z,88.57
2023-09-30T03:40:06.803Z,88.57
2023-09-30T03:41:06.808Z,88.47
2023-09-30T03:42:06.780Z,88.37
2023-09-30T03:43:06.762Z,88.37
2023-09-30T03:44:06.739Z,88.26
2023-09-30T03:45:06.738Z,88.17
2023-09-30T03:46:06.717Z,88.17
2023-09-30T03:47:06.733Z,88.17
2023-09-30T03:48:06.720Z,88.17
2023-09-30T03:49:06.717Z,88.17
2023-09-30T03:50:06.687Z,88.17
2023-09-30T03:51:06.656Z,88.17
2023-09-30T03:52:06.640Z,88.26
2023-09-30T03:53:06.619Z,88.06
2023-09-30T03:54:06.701Z,87.96
2023-09-30T03:55:06.604Z,88.06
2023-09-30T03:56:06.597Z,87.96
2023-09-30T03:57:06.582Z,87.76
2023-09-30T03:58:06.548Z,87.96
2023-09-30T03:59:06.539Z,87.85
2023-09-30T04:00:06.533Z,88.06
2023-09-30T04:01:06.631Z,88.17
2023-09-30T04:02:06.505Z,88.06
2023-09-30T04:03:06.553Z,87.96
2023-09-30T04:04:06.627Z,87.85
2023-09-30T04:05:06.483Z,87.85
2023-09-30T04:06:06.445Z,87.76
2023-09-30T04:07:06.425Z,87.96
2023-09-30T04:08:06.463Z,88.17
2023-09-30T04:09:06.408Z,88.17
2023-09-30T04:10:06.422Z,88.06
2023-09-30T04:11:06.392Z,88.26
2023-09-30T04:12:10.235Z,88.26
2023-09-30T04:13:06.359Z,88.06
2023-09-30T04:14:06.344Z,87.96
2023-09-30T04:15:06.352Z,87.90
2023-09-30T04:16:06.321Z,87.70
2023-09-30T04:17:06.311Z,87.79
2023-09-30T04:18:06.322Z,88.00
2023-09-30T04:19:06.296Z,88.00
2023-09-30T04:20:06.249Z,88.20
2023-09-30T04:21:06.266Z,88.00
2023-09-30T04:22:06.217Z,88.10
2023-09-30T04:23:06.224Z,88.41
2023-09-30T04:24:06.218Z,88.41
2023-09-30T04:25:06.192Z,88.41
2023-09-30T04:26:06.173Z,88.41
2023-09-30T04:27:06.167Z,88.61
2023-09-30T04:28:06.159Z,88.71
2023-09-30T04:29:06.181Z,88.61
2023-09-30T04:30:06.126Z,88.61
2023-09-30T04:31:06.290Z,88.71
2023-09-30T04:32:06.222Z,88.82
2023-09-30T04:33:06.163Z,88.71
2023-09-30T04:34:06.109Z,88.51
2023-09-30T04:35:06.052Z,88.51
2023-09-30T04:36:06.047Z,88.61
2023-09-30T04:37:06.046Z,88.41
2023-09-30T04:38:06.034Z,88.41
2023-09-30T04:39:06.040Z,88.82
2023-09-30T04:40:05.986Z,88.82
2023-09-30T04:41:05.999Z,88.71
2023-09-30T04:42:05.990Z,88.82
2023-09-30T04:43:05.961Z,89.02
2023-09-30T04:44:05.938Z,89.43
2023-09-30T04:45:05.923Z,89.53
2023-09-30T04:46:05.937Z,89.53
2023-09-30T04:47:05.915Z,89.53
2023-09-30T04:48:05.996Z,89.53
2023-09-30T04:49:05.869Z,89.32
2023-09-30T04:50:05.862Z,89.43
2023-09-30T04:51:05.846Z,89.43
2023-09-30T04:52:05.839Z,89.23
2023-09-30T04:53:05.829Z,89.23
2023-09-30T04:54:05.813Z,89.12
2023-09-30T04:55:05.803Z,89.12
2023-09-30T04:56:05.827Z,89.23
2023-09-30T04:57:05.768Z,89.32
2023-09-30T04:58:05.775Z,89.73
2023-09-30T04:59:05.741Z,89.63
2023-09-30T05:00:05.723Z,89.73
2023-09-30T05:01:05.879Z,89.73
2023-09-30T05:02:05.697Z,89.63
2023-09-30T05:03:05.753Z,89.73
2023-09-30T05:04:05.762Z,89.84
2023-09-30T05:05:05.659Z,89.94
2023-09-30T05:06:05.653Z,90.04
2023-09-30T05:07:05.624Z,90.04
2023-09-30T05:08:05.627Z,90.14
2023-09-30T05:09:05.609Z,90.04
2023-09-30T05:10:05.596Z,90.14
2023-09-30T05:11:05.575Z,90.25
2023-09-30T05:12:05.583Z,90.04
2023-09-30T05:13:05.552Z,90.14
2023-09-30T05:14:05.602Z,90.25
2023-09-30T05:15:05.541Z,90.25
2023-09-30T05:16:05.576Z,90.25
2023-09-30T05:17:05.622Z,90.04
2023-09-30T05:18:05.535Z,90.04
2023-09-30T05:19:05.545Z,90.04
2023-09-30T05:20:05.464Z,90.14
2023-09-30T05:21:05.448Z,90.25
2023-09-30T05:22:05.424Z,90.25
2023-09-30T05:23:05.420Z,90.35
2023-09-30T05:24:05.421Z,90.35
2023-09-30T05:25:05.416Z,90.45
2023-09-30T05:26:05.380Z,90.55
2023-09-30T05:27:05.364Z,90.66
2023-09-30T05:28:05.365Z,90.75
2023-09-30T05:29:05.350Z,90.75
2023-09-30T05:30:05.325Z,90.75
2023-09-30T05:31:05.391Z,90.86
2023-09-30T05:32:05.302Z,90.75
2023-09-30T05:33:05.347Z,90.55
2023-09-30T05:34:05.293Z,90.55
2023-09-30T05:35:05.249Z,90.45
2023-09-30T05:36:05.233Z,90.25
2023-09-30T05:37:05.234Z,90.14
2023-09-30T05:38:05.220Z,90.14
2023-09-30T05:39:05.216Z,90.35
2023-09-30T05:40:05.179Z,90.25
2023-09-30T05:41:05.208Z,90.04
2023-09-30T05:42:05.172Z,90.14
2023-09-30T05:43:05.174Z,90.04
2023-09-30T05:44:05.137Z,90.04
2023-09-30T05:45:05.145Z,90.14
2023-09-30T05:46:05.186Z,90.04
2023-09-30T05:47:05.120Z,90.14
2023-09-30T05:48:05.219Z,90.14
2023-09-30T05:49:05.100Z,90.25
2023-09-30T05:50:05.094Z,90.25
2023-09-30T05:51:05.044Z,90.25
2023-09-30T05:52:05.053Z,90.45
2023-09-30T05:53:05.022Z,90.45
2023-09-30T05:54:05.004Z,90.45
2023-09-30T05:55:04.989Z,90.45
2023-09-30T05:56:05.136Z,90.51
2023-09-30T05:57:04.981Z,90.51
2023-09-30T05:58:04.944Z,90.61
2023-09-30T05:59:04.936Z,90.61
2023-09-30T06:00:04.983Z,90.61
2023-09-30T06:01:04.989Z,90.61
2023-09-30T06:02:04.983Z,90.51
2023-09-30T06:03:05.100Z,90.41
2023-09-30T06:04:05.151Z,90.41
2023-09-30T06:05:04.902Z,90.31
2023-09-30T06:06:04.911Z,90.31
2023-09-30T06:07:04.830Z,90.31
2023-09-30T06:08:04.958Z,90.31
2023-09-30T06:09:04.803Z,90.20
2023-09-30T06:10:04.858Z,90.31
2023-09-30T06:11:04.815Z,90.31
2023-09-30T06:12:04.796Z,90.31
2023-09-30T06:13:04.772Z,90.16
2023-09-30T06:14:04.742Z,90.26
2023-09-30T06:15:04.765Z,90.26
2023-09-30T06:16:05.100Z,90.16
2023-09-30T06:17:04.707Z,89.96
2023-09-30T06:18:04.718Z,90.16
2023-09-30T06:19:04.704Z,90.12
2023-09-30T06:20:04.683Z,90.32
2023-09-30T06:21:04.648Z,90.32
2023-09-30T06:22:04.627Z,89.97
2023-09-30T06:23:04.641Z,89.87
2023-09-30T06:24:04.594Z,89.47
2023-09-30T06:25:04.787Z,89.36
2023-09-30T06:26:04.579Z,89.36
2023-09-30T06:27:04.564Z,89.36
2023-09-30T06:28:04.590Z,89.16
2023-09-30T06:29:04.566Z,89.06
2023-09-30T06:30:04.547Z,88.96
2023-09-30T06:31:04.553Z,88.81
2023-09-30T06:32:04.571Z,88.92
2023-09-30T06:33:04.512Z,88.81
2023-09-30T06:34:04.515Z,88.71
2023-09-30T06:35:04.526Z,88.71
2023-09-30T06:36:04.442Z,88.71
2023-09-30T06:37:04.448Z,88.92
2023-09-30T06:38:04.452Z,88.81
2023-09-30T06:39:04.433Z,88.61
2023-09-30T06:40:04.387Z,88.61
2023-09-30T06:41:04.380Z,88.40
2023-09-30T06:42:04.412Z,88.40
2023-09-30T06:43:04.366Z,88.51
2023-09-30T06:44:04.347Z,88.36
2023-09-30T06:45:04.319Z,88.26
2023-09-30T06:46:04.441Z,88.46
2023-09-30T06:47:04.326Z,88.26
2023-09-30T06:48:04.383Z,88.26
2023-09-30T06:49:04.272Z,88.06
2023-09-30T06:50:04.317Z,88.06
2023-09-30T06:51:04.283Z,88.26
2023-09-30T06:52:04.235Z,88.16
2023-09-30T06:53:04.451Z,88.02
2023-09-30T06:54:04.218Z,88.02
2023-09-30T06:55:04.197Z,87.92
2023-09-30T06:56:04.176Z,87.92
2023-09-30T06:57:04.214Z,88.08
2023-09-30T06:58:04.165Z,87.87
2023-09-30T06:59:04.136Z,87.47
2023-09-30T07:00:04.169Z,87.37
2023-09-30T07:01:04.222Z,87.43
2023-09-30T07:02:04.114Z,87.53
2023-09-30T07:03:04.169Z,87.63
2023-09-30T07:04:04.145Z,87.49
2023-09-30T07:05:04.064Z,87.49
2023-09-30T07:06:04.043Z,87.49
2023-09-30T07:07:04.066Z,87.45
2023-09-30T07:08:04.019Z,87.24
2023-09-30T07:09:04.008Z,86.94
2023-09-30T07:10:04.020Z,86.80
2023-09-30T07:11:03.991Z,86.49
2023-09-30T07:12:03.980Z,86.29
2023-09-30T07:13:03.964Z,86.29
2023-09-30T07:14:04.042Z,86.25
2023-09-30T07:15:03.928Z,86.05
2023-09-30T07:16:04.026Z,85.94
2023-09-30T07:17:03.916Z,85.70
2023-09-30T07:18:03.916Z,85.19
2023-09-30T07:19:03.981Z,84.89
2023-09-30T07:20:04.107Z,84.69
2023-09-30T07:21:03.856Z,84.64
2023-09-30T07:22:04.988Z,83.83
2023-09-30T07:23:18.208Z,83.83
2023-09-30T07:24:04.823Z,83.94
2023-09-30T07:25:03.887Z,83.90
2023-09-30T07:26:03.781Z,83.90
2023-09-30T07:27:06.492Z,83.69
2023-09-30T07:28:04.871Z,83.15
2023-09-30T07:29:03.749Z,82.75
2023-09-30T07:30:03.760Z,82.54
2023-09-30T07:31:03.819Z,82.44
2023-09-30T07:32:03.762Z,82.64
2023-09-30T07:33:03.770Z,82.60
2023-09-30T07:34:03.790Z,82.40
2023-09-30T07:35:03.696Z,81.79
2023-09-30T07:36:03.660Z,81.45
2023-09-30T07:37:03.635Z,81.35
2023-09-30T07:38:03.628Z,80.74
2023-09-30T07:39:03.633Z,80.60
2023-09-30T07:40:03.608Z,80.71
2023-09-30T07:41:03.607Z,80.30
2023-09-30T07:42:03.565Z,80.16
2023-09-30T07:43:03.670Z,79.75
2023-09-30T07:44:03.546Z,79.66
2023-09-30T07:45:03.533Z,78.95
2023-09-30T07:46:03.595Z,78.91
2023-09-30T07:47:03.580Z,78.71
2023-09-30T07:48:03.526Z,78.50
2023-09-30T07:49:03.514Z,78.41
2023-09-30T07:50:03.613Z,77.06
2023-09-30T07:51:03.445Z,77.06
2023-09-30T07:52:03.425Z,77.46
2023-09-30T07:53:03.429Z,77.36
2023-09-30T07:54:19.062Z,76.92
2023-09-30T07:55:04.439Z,77.02
2023-09-30T07:56:03.382Z,77.12
2023-09-30T07:57:03.371Z,76.78
2023-09-30T07:58:03.416Z,76.88
2023-09-30T07:59:03.382Z,76.78
2023-09-30T08:00:03.346Z,76.98
2023-09-30T08:01:03.397Z,76.34
2023-09-30T08:02:03.311Z,76.44
2023-09-30T08:03:03.327Z,76.44
2023-09-30T08:04:03.384Z,76.51
2023-09-30T08:05:03.263Z,75.70
2023-09-30T08:06:03.243Z,75.60
2023-09-30T08:07:03.246Z,75.26
2023-09-30T08:08:03.259Z,74.35
2023-09-30T08:09:03.209Z,74.46
2023-09-30T08:10:03.189Z,74.73
2023-09-30T08:11:03.185Z,74.73
2023-09-30T08:12:03.203Z,73.52
2023-09-30T08:13:03.189Z,73.48
2023-09-30T08:14:03.161Z,71.67
2023-09-30T08:15:03.169Z,72.27
2023-09-30T08:16:03.181Z,72.97
2023-09-30T08:17:03.130Z,73.04
2023-09-30T08:18:03.184Z,72.44
2023-09-30T08:19:03.104Z,73.11
2023-09-30T08:20:03.077Z,72.81
2023-09-30T08:21:03.120Z,71.80
2023-09-30T08:22:03.061Z,71.36
2023-09-30T08:23:03.029Z,70.56
2023-09-30T08:24:03.094Z,70.76
2023-09-30T08:25:03.096Z,70.56
2023-09-30T08:26:03.050Z,69.22
2023-09-30T08:27:02.968Z,68.82
2023-09-30T08:28:03.017Z,70.03
2023-09-30T08:29:02.951Z,68.38
2023-09-30T08:30:02.961Z,68.99
2023-09-30T08:31:02.985Z,69.89
2023-09-30T08:32:02.933Z,69.85
2023-09-30T08:33:03.087Z,67.75
2023-09-30T08:34:02.916Z,68.35
2023-09-30T08:35:02.910Z,68.62
2023-09-30T08:36:02.898Z,68.72
2023-09-30T08:37:02.844Z,68.59
2023-09-30T08:38:02.836Z,68.29
2023-09-30T08:39:02.892Z,68.05
2023-09-30T08:40:03.022Z,67.15
2023-09-30T08:41:02.846Z,65.55
2023-09-30T08:42:02.863Z,65.25
2023-09-30T08:43:02.803Z,66.12
2023-09-30T08:44:02.797Z,65.82
2023-09-30T08:45:02.811Z,65.52
2023-09-30T08:46:02.830Z,65.12
2023-09-30T08:47:02.800Z,64.81
2023-09-30T08:48:02.737Z,64.62
2023-09-30T08:49:02.724Z,64.78
2023-09-30T08:50:02.687Z,64.59
2023-09-30T08:51:02.680Z,63.45
2023-09-30T08:52:02.739Z,62.95
2023-09-30T08:53:02.672Z,62.25
2023-09-30T08:54:02.713Z,61.75
2023-09-30T08:55:02.654Z,63.35
2023-09-30T08:56:02.598Z,64.03
2023-09-30T08:57:02.587Z,62.82
2023-09-30T08:58:02.675Z,62.19
2023-09-30T08:59:02.705Z,62.70
2023-09-30T09:00:02.622Z,61.99
2023-09-30T09:01:02.642Z,61.36
2023-09-30T09:02:02.527Z,60.96
2023-09-30T09:03:02.574Z,60.66
2023-09-30T09:04:02.740Z,60.74
2023-09-30T09:05:02.555Z,61.04
2023-09-30T09:06:02.498Z,59.23
2023-09-30T09:07:02.589Z,58.71
2023-09-30T09:08:02.460Z,59.61
2023-09-30T09:09:02.433Z,59.41
2023-09-30T09:10:02.423Z,60.50
2023-09-30T09:11:02.384Z,60.97
2023-09-30T09:12:02.424Z,59.58
2023-09-30T09:13:02.447Z,59.48
2023-09-30T09:14:02.381Z,58.45
2023-09-30T09:15:02.388Z,57.95
2023-09-30T09:16:02.539Z,57.06
2023-09-30T09:17:02.422Z,57.76
2023-09-30T09:18:02.421Z,58.25
2023-09-30T09:19:02.369Z,57.86
2023-09-30T09:20:02.325Z,56.63
2023-09-30T09:21:02.269Z,56.66
2023-09-30T09:22:02.375Z,57.53
2023-09-30T09:23:02.234Z,57.82
2023-09-30T09:24:02.267Z,57.73
2023-09-30T09:25:02.319Z,57.03
2023-09-30T09:26:02.248Z,56.93
2023-09-30T09:27:02.228Z,57.03
2023-09-30T09:28:02.236Z,55.73
2023-09-30T09:29:02.137Z,54.83
2023-09-30T09:30:02.321Z,54.83
2023-09-30T09:31:02.344Z,55.73
2023-09-30T09:32:02.223Z,56.63
2023-09-30T09:33:02.151Z,57.20
2023-09-30T09:34:02.140Z,56.81
2023-09-30T09:35:02.103Z,56.10
2023-09-30T09:36:02.086Z,56.21
2023-09-30T09:37:02.142Z,56.18
2023-09-30T09:38:02.040Z,53.78
2023-09-30T09:39:02.375Z,54.91
2023-09-30T09:40:02.038Z,55.31
2023-09-30T09:41:02.019Z,54.71
2023-09-30T09:42:02.011Z,54.41
2023-09-30T09:43:02.010Z,55.31
2023-09-30T09:44:01.998Z,54.31
2023-09-30T09:45:02.100Z,54.61
2023-09-30T09:46:01.994Z,54.61
2023-09-30T09:47:01.980Z,54.21
2023-09-30T09:48:01.987Z,54.11
2023-09-30T09:49:02.067Z,54.71
2023-09-30T09:50:01.890Z,55.68
2023-09-30T09:51:01.887Z,54.79
2023-09-30T09:52:01.997Z,53.99
2023-09-30T09:53:02.015Z,54.21
2023-09-30T09:54:01.829Z,54.81
2023-09-30T09:55:01.947Z,53.69
2023-09-30T09:56:01.873Z,54.21
2023-09-30T09:57:01.794Z,54.11
2023-09-30T09:58:01.836Z,54.61
2023-09-30T09:59:01.772Z,54.49
2023-09-30T10:00:01.788Z,53.89
2023-09-30T10:01:01.833Z,53.59
2023-09-30T10:02:01.771Z,53.09
2023-09-30T10:03:01.802Z,53.89
2023-09-30T10:04:01.783Z,53.61
2023-09-30T10:05:01.780Z,54.14
2023-09-30T10:06:01.712Z,53.34
2023-09-30T10:07:01.821Z,53.54
2023-09-30T10:08:01.652Z,54.14
2023-09-30T10:09:01.655Z,54.94
2023-09-30T10:10:01.723Z,55.04
2023-09-30T10:11:01.607Z,53.74
2023-09-30T10:12:01.588Z,53.64
2023-09-30T10:13:01.626Z,54.04
2023-09-30T10:14:01.573Z,53.44
2023-09-30T10:15:01.625Z,53.41
2023-09-30T10:16:01.581Z,53.94
2023-09-30T10:17:01.537Z,54.06
2023-09-30T10:18:01.608Z,53.86
2023-09-30T10:19:01.572Z,54.89
2023-09-30T10:20:01.505Z,54.79
2023-09-30T10:21:01.526Z,54.76
2023-09-30T10:22:01.557Z,54.39
2023-09-30T10:23:01.439Z,54.96
2023-09-30T10:24:01.436Z,55.36
2023-09-30T10:25:01.444Z,54.74
2023-09-30T10:26:01.389Z,54.64
2023-09-30T10:27:01.375Z,53.54
2023-09-30T10:28:01.540Z,53.84
2023-09-30T10:29:01.424Z,53.64
2023-09-30T10:30:01.380Z,53.04
2023-09-30T10:31:01.444Z,52.55
2023-09-30T10:32:01.396Z,53.44
2023-09-30T10:33:01.377Z,53.64
2023-09-30T10:34:01.586Z,53.74
2023-09-30T10:35:01.394Z,54.44
2023-09-30T10:36:01.296Z,53.91
2023-09-30T10:37:01.373Z,53.22
2023-09-30T10:38:01.281Z,53.91
2023-09-30T10:39:01.265Z,54.11
2023-09-30T10:40:01.389Z,54.53
2023-09-30T10:41:01.273Z,55.01
2023-09-30T10:42:01.186Z,54.71
2023-09-30T10:43:01.269Z,53.61
2023-09-30T10:44:01.153Z,53.31
2023-09-30T10:45:01.150Z,53.02
2023-09-30T10:46:01.184Z,53.91
2023-09-30T10:47:01.194Z,54.51
2023-09-30T10:48:01.111Z,53.89
2023-09-30T10:49:01.429Z,53.41
2023-09-30T10:50:01.049Z,52.92
2023-09-30T10:51:01.100Z,53.41
2023-09-30T10:52:01.316Z,53.11
2023-09-30T10:53:01.039Z,53.22
2023-09-30T10:54:01.033Z,52.92
2023-09-30T10:55:01.051Z,53.61
2023-09-30T10:56:01.002Z,52.74
2023-09-30T10:57:01.004Z,53.14
2023-09-30T10:58:01.070Z,52.84
2023-09-30T10:59:01.049Z,52.87
2023-09-30T11:00:00.961Z,52.57
2023-09-30T11:01:01.032Z,53.56
2023-09-30T11:02:01.233Z,53.77
2023-09-30T11:03:03.242Z,54.06
2023-09-30T11:04:01.103Z,54.34
2023-09-30T11:05:01.316Z,53.44
2023-09-30T11:06:12.427Z,54.04
2023-09-30T11:07:02.012Z,53.74
2023-09-30T11:08:01.009Z,53.54
2023-09-30T11:09:00.868Z,53.77
2023-09-30T11:10:00.888Z,53.27
2023-09-30T11:11:00.782Z,52.17
2023-09-30T11:12:00.927Z,51.70
2023-09-30T11:13:00.864Z,52.00
2023-09-30T11:14:00.754Z,52.22
2023-09-30T11:15:00.805Z,52.22
2023-09-30T11:16:00.718Z,53.22
2023-09-30T11:17:00.846Z,53.31
2023-09-30T11:18:00.808Z,53.12
2023-09-30T11:19:00.867Z,53.61
2023-09-30T11:20:00.720Z,54.02
2023-09-30T11:21:00.680Z,54.14
2023-09-30T11:22:00.678Z,54.74
2023-09-30T11:23:00.625Z,55.14
2023-09-30T11:24:00.678Z,54.84
2023-09-30T11:25:00.614Z,54.94
2023-09-30T11:26:00.618Z,54.24
2023-09-30T11:27:00.722Z,52.94
2023-09-30T11:28:00.638Z,53.94
2023-09-30T11:29:00.562Z,54.57
2023-09-30T11:30:00.548Z,54.47
2023-09-30T11:31:00.675Z,53.77
2023-09-30T11:32:00.528Z,53.79
2023-09-30T11:33:00.583Z,53.79
2023-09-30T11:34:00.566Z,54.19
2023-09-30T11:35:00.462Z,54.29
2023-09-30T11:36:00.462Z,55.02
2023-09-30T11:37:00.527Z,54.82
2023-09-30T11:38:01.070Z,54.52
2023-09-30T11:39:02.799Z,54.72
2023-09-30T11:40:00.748Z,54.82
2023-09-30T11:41:00.491Z,54.72
2023-09-30T11:42:00.426Z,54.42
2023-09-30T11:43:00.548Z,54.82
2023-09-30T11:44:00.531Z,54.74
2023-09-30T11:45:00.327Z,54.94
2023-09-30T11:46:00.494Z,55.55
2023-09-30T11:47:00.395Z,55.24
2023-09-30T11:48:00.391Z,55.24
2023-09-30T11:49:00.552Z,55.44
2023-09-30T11:50:00.600Z,54.85
2023-09-30T11:51:00.332Z,55.35
2023-09-30T11:52:00.395Z,55.15
2023-09-30T11:53:00.306Z,55.37
2023-09-30T11:54:00.250Z,55.27
2023-09-30T11:55:00.267Z,55.27
2023-09-30T11:56:00.255Z,55.27
2023-09-30T11:57:00.314Z,55.07
2023-09-30T11:58:00.272Z,55.27
2023-09-30T11:59:00.528Z,55.57
2023-09-30T12:00:00.199Z,55.67
2023-09-30T12:01:00.229Z,56.17
2023-09-30T12:02:13.823Z,55.94
2023-09-30T12:03:01.176Z,56.05
2023-09-30T12:04:00.201Z,56.55
2023-09-30T12:05:00.275Z,56.74
2023-09-30T12:06:00.083Z,56.82
2023-09-30T12:07:00.107Z,55.92
2023-09-30T12:08:00.052Z,56.32
2023-09-30T12:09:00.338Z,55.42
2023-09-30T12:10:00.077Z,55.72
2023-09-30T12:11:00.027Z,55.69
2023-09-30T12:12:00.178Z,55.09
2023-09-30T12:13:00.032Z,55.69
2023-09-30T12:14:00.020Z,55.89
2023-09-30T12:15:00.082Z,55.59
2023-09-30T12:16:00.031Z,55.27
2023-09-30T12:17:00.183Z,54.37
2023-09-30T12:18:00.069Z,54.27
2023-09-30T12:19:00.141Z,52.97
2023-09-30T12:19:59.969Z,53.77
2023-09-30T12:20:59.940Z,53.67
2023-09-30T12:22:00.058Z,54.17
2023-09-30T12:22:59.876Z,53.27
2023-09-30T12:24:00.041Z,52.97
2023-09-30T12:24:59.895Z,52.47
2023-09-30T12:26:13.052Z,52.57
2023-09-30T12:27:00.890Z,51.27
2023-09-30T12:28:00.019Z,51.87
2023-09-30T12:29:00.014Z,51.27
2023-09-30T12:29:59.986Z,51.15
2023-09-30T12:30:59.893Z,50.84
2023-09-30T12:32:00.086Z,50.65
2023-09-30T12:32:59.769Z,50.35
2023-09-30T12:33:59.903Z,50.15
2023-09-30T12:34:59.719Z,51.25
2023-09-30T12:35:59.724Z,51.75
2023-09-30T12:36:59.674Z,51.75
2023-09-30T12:37:59.676Z,51.64
2023-09-30T12:38:59.783Z,51.54
2023-09-30T12:39:59.744Z,50.95
2023-09-30T12:40:59.734Z,51.64
2023-09-30T12:41:59.661Z,51.54
2023-09-30T12:42:59.669Z,51.04
2023-09-30T12:43:59.577Z,50.15
2023-09-30T12:44:59.517Z,51.15
2023-09-30T12:45:59.582Z,51.25
2023-09-30T12:46:59.644Z,50.24
2023-09-30T12:47:59.622Z,50.15
2023-09-30T12:48:59.690Z,50.62
2023-09-30T12:49:59.526Z,50.82
2023-09-30T12:50:59.464Z,50.62
2023-09-30T12:51:59.559Z,50.12